Terminal Aerodrome Forecast
Issued by NWS

Home | Current Version | Previous Version | Text Only | Print | Product List | Glossary On
Versions: 1 2 3 4 5 6 7 8 9 10 11 12 13 14 15 16
992
FTUS45 KRIW 261136
TAFBPI
TAF
KBPI 261136Z 2612/2712 VRB04KT P6SM VCFG SCT004
     FM261600 VRB05KT P6SM SCT060
     FM262000 31010KT P6SM VCTS SCT040CB BKN060
     FM270200 VRB05KT P6SM VCSH SCT030 BKN050=

USA.gov is the U.S. government's official web portal to all federal, state and local government web resources and services.